Genoa, Illinois
Current Conditions -  °F | °C
As of 5:15 PM on Sunday 21 Dec 2014 (Local Time) from KDKB Reporting Station
Overcast Overcast  
Wind Chill: 25°   Ceiling: 2100
Heat Index: 33°   Visibility: 7mi
Dew Point: 30°   Wind: 10mph
Humidity: 89%   Direction: 160°SSE
Pressure: 30.06"   Gusts: NA
Location:  42.1°N, 88.69°W
Report Text: KDKB 212315Z AUTO 16009KT 7SM OVC021 01/M01 A3006 RMK AO2 T00071010
Loading
Personal Weather Stations






























Interactive Weather Map New forecast layout! Learn more

10-Day Weather Forecast

Advertisements
Track Severe Weather on mobile